Terminal Aerodrome Forecast
Issued by NWS

Home | Current Version | Previous Version | Text Only | Print | Product List | Glossary On
Versions: 1 2 3 4 5 6 7 8 9 10 11 12 13 14 15 16
926
FTUS43 KDVN 222333
TAFCID
TAF
KCID 222333Z 2300/2324 07013KT P6SM BKN250
     FM230300 06007KT P6SM BKN250
     FM231800 04010KT P6SM SCT250=

USA.gov is the U.S. government's official web portal to all federal, state and local government web resources and services.